createdAt,value
2019-04-20T00:01:29.402Z,25.83
2019-04-20T00:04:01.016Z,25.83
2019-04-20T00:06:41.659Z,25.54
2019-04-20T00:09:14.076Z,25.52
2019-04-20T00:11:53.626Z,25.83
2019-04-20T00:14:19.767Z,25.48
2019-04-20T00:16:50.573Z,25.48
2019-04-20T00:19:31.343Z,25.80
2019-04-20T00:22:03.393Z,25.74
2019-04-20T00:24:38.864Z,25.73
2019-04-20T00:27:34.119Z,25.73
2019-04-20T00:30:03.366Z,25.79
2019-04-20T00:32:34.307Z,25.70
2019-04-20T00:34:53.862Z,25.62
2019-04-20T00:37:25.836Z,25.80
2019-04-20T00:39:57.926Z,25.71
2019-04-20T00:42:37.070Z,25.44
2019-04-20T00:45:12.860Z,25.66
2019-04-20T00:47:47.746Z,25.64
2019-04-20T00:50:29.902Z,25.74
2019-04-20T00:52:59.101Z,25.74
2019-04-20T00:55:19.069Z,25.89
2019-04-20T00:57:57.022Z,25.98
2019-04-20T01:00:40.815Z,26.04
2019-04-20T01:03:18.453Z,26.04
2019-04-20T01:06:25.023Z,26.32
2019-04-20T01:08:46.408Z,26.38
2019-04-20T01:11:26.978Z,26.54
2019-04-20T01:13:56.089Z,26.58
2019-04-20T01:16:36.611Z,26.56
2019-04-20T01:18:58.956Z,26.88
2019-04-20T01:21:33.459Z,26.83
2019-04-20T01:24:08.201Z,26.83
2019-04-20T01:26:44.612Z,26.88
2019-04-20T01:29:21.558Z,27.18
2019-04-20T01:32:00.737Z,27.22
2019-04-20T01:34:32.573Z,27.22
2019-04-20T01:37:09.309Z,27.31
2019-04-20T01:39:34.626Z,27.46
2019-04-20T01:42:00.317Z,27.51
2019-04-20T01:44:38.511Z,27.65
2019-04-20T01:47:08.011Z,28.29
2019-04-20T01:49:39.026Z,28.55
2019-04-20T01:52:20.094Z,28.56
2019-04-20T01:55:08.729Z,28.53
2019-04-20T01:57:45.819Z,28.56
2019-04-20T02:00:33.328Z,28.71
2019-04-20T02:03:22.786Z,28.75
2019-04-20T02:05:59.160Z,28.75
2019-04-20T02:08:29.394Z,28.90
2019-04-20T02:11:03.634Z,28.90
2019-04-20T02:13:42.175Z,28.98
2019-04-20T02:16:15.800Z,28.92
2019-04-20T02:18:58.708Z,28.92
2019-04-20T02:21:27.639Z,29.21
2019-04-20T02:23:54.644Z,28.99
2019-04-20T02:26:21.799Z,29.33
2019-04-20T02:29:18.967Z,29.33
2019-04-20T02:34:47.870Z,29.31
2019-04-20T02:37:49.367Z,29.40
2019-04-20T02:42:50.847Z,29.56
2019-04-20T02:45:28.918Z,29.62
2019-04-20T02:47:57.009Z,29.62
2019-04-20T02:50:34.101Z,29.93
2019-04-20T02:53:04.838Z,29.95
2019-04-20T02:58:07.685Z,29.74
2019-04-20T03:00:33.953Z,29.79
2019-04-20T03:02:55.927Z,29.84
2019-04-20T03:05:29.808Z,29.84
2019-04-20T03:08:09.992Z,30.27
2019-04-20T03:10:58.541Z,30.27
2019-04-20T03:13:25.343Z,30.16
2019-04-20T03:15:56.733Z,30.28
2019-04-20T03:18:32.031Z,30.28
2019-04-20T03:21:08.109Z,30.33
2019-04-20T03:23:47.989Z,30.67
2019-04-20T03:26:16.188Z,30.61
2019-04-20T03:29:01.466Z,30.48
2019-04-20T03:34:55.426Z,30.91
2019-04-20T03:37:13.387Z,30.83
2019-04-20T03:39:35.984Z,30.83
2019-04-20T03:41:56.933Z,30.70
2019-04-20T03:44:30.758Z,30.70
2019-04-20T03:47:07.731Z,30.88
2019-04-20T03:50:01.298Z,30.86
2019-04-20T03:53:04.439Z,31.14
2019-04-20T03:58:55.499Z,31.21
2019-04-20T04:02:06.129Z,31.51
2019-04-20T04:04:29.889Z,31.51
2019-04-20T04:06:46.385Z,31.47
2019-04-20T04:09:24.598Z,30.84
2019-04-20T04:11:58.492Z,30.84
2019-04-20T04:14:19.853Z,30.95
2019-04-20T04:16:57.243Z,31.50
2019-04-20T04:19:30.240Z,31.79
2019-04-20T04:22:08.656Z,31.82
2019-04-20T04:24:46.619Z,31.99
2019-04-20T04:27:22.868Z,31.99
2019-04-20T04:29:56.913Z,31.69
2019-04-20T04:32:49.941Z,31.34
2019-04-20T04:35:01.694Z,31.18
2019-04-20T04:37:38.746Z,31.80
2019-04-20T04:40:22.457Z,31.82
2019-04-20T04:42:46.541Z,31.53
2019-04-20T04:45:04.647Z,31.90
2019-04-20T04:47:34.598Z,31.90
2019-04-20T04:50:13.063Z,31.96
2019-04-20T04:52:53.909Z,31.47
2019-04-20T04:55:25.986Z,31.87
2019-04-20T04:57:47.452Z,31.83
2019-04-20T05:00:24.647Z,31.83
2019-04-20T05:03:00.916Z,31.93
2019-04-20T05:06:03.824Z,31.93
2019-04-20T05:08:25.077Z,31.86
2019-04-20T05:10:49.899Z,32.34
2019-04-20T05:13:27.714Z,32.34
2019-04-20T05:16:07.603Z,32.26
2019-04-20T05:18:59.262Z,32.17
2019-04-20T05:21:31.422Z,32.32
2019-04-20T05:24:25.522Z,32.21
2019-04-20T05:27:33.600Z,32.30
2019-04-20T05:29:48.721Z,32.48
2019-04-20T05:32:35.758Z,32.06
2019-04-20T05:35:27.017Z,31.79
2019-04-20T05:38:06.979Z,32.08
2019-04-20T05:40:42.167Z,32.28
2019-04-20T05:43:33.533Z,32.00
2019-04-20T05:46:17.835Z,32.34
2019-04-20T05:48:56.226Z,32.57
2019-04-20T05:51:35.071Z,32.23
2019-04-20T05:54:13.864Z,32.23
2019-04-20T05:56:56.254Z,32.11
2019-04-20T05:59:40.897Z,32.19
2019-04-20T06:02:26.250Z,32.43
2019-04-20T06:07:48.811Z,32.66
2019-04-20T06:10:32.024Z,32.66
2019-04-20T06:13:11.191Z,32.57
2019-04-20T06:16:15.696Z,32.57
2019-04-20T06:19:18.240Z,32.39
2019-04-20T06:21:57.543Z,32.75
2019-04-20T06:24:47.871Z,32.89
2019-04-20T06:27:24.971Z,32.89
2019-04-20T06:30:01.141Z,32.78
2019-04-20T06:33:24.513Z,32.92
2019-04-20T06:41:46.579Z,33.08
2019-04-20T06:44:14.798Z,33.02
2019-04-20T06:47:02.748Z,32.94
2019-04-20T06:49:35.125Z,32.74
2019-04-20T06:52:27.637Z,32.74
2019-04-20T06:55:23.474Z,32.79
2019-04-20T06:58:12.626Z,32.86
2019-04-20T07:00:55.339Z,32.56
2019-04-20T07:03:51.355Z,32.56
2019-04-20T07:06:35.360Z,32.62
2019-04-20T07:09:07.535Z,33.03
2019-04-20T07:11:46.765Z,32.68
2019-04-20T07:14:25.984Z,33.25
2019-04-20T07:17:32.993Z,33.27
2019-04-20T07:20:19.582Z,33.27
2019-04-20T07:23:18.159Z,33.38
2019-04-20T07:25:57.781Z,33.02
2019-04-20T07:28:47.334Z,33.30
2019-04-20T07:31:20.526Z,33.07
2019-04-20T07:34:03.721Z,33.07
2019-04-20T07:37:04.633Z,33.16
2019-04-20T07:39:33.059Z,33.20
2019-04-20T07:42:22.966Z,33.32
2019-04-20T07:45:07.437Z,33.32
2019-04-20T07:47:45.941Z,32.81
2019-04-20T07:50:18.901Z,33.16
2019-04-20T07:53:05.960Z,33.15
2019-04-20T07:55:52.334Z,32.68
2019-04-20T07:58:18.157Z,32.70
2019-04-20T08:01:22.315Z,32.70
2019-04-20T08:04:08.102Z,32.95
2019-04-20T08:06:43.365Z,32.95
2019-04-20T08:09:29.172Z,33.32
2019-04-20T08:12:27.572Z,33.32
2019-04-20T08:15:13.339Z,33.06
2019-04-20T08:17:51.448Z,32.78
2019-04-20T08:20:27.912Z,32.78
2019-04-20T08:23:13.020Z,32.89
2019-04-20T08:25:47.294Z,32.97
2019-04-20T08:28:39.245Z,32.89
2019-04-20T08:31:46.228Z,33.07
2019-04-20T08:34:43.066Z,33.66
2019-04-20T08:37:17.569Z,33.60
2019-04-20T08:40:07.455Z,33.60
2019-04-20T08:42:56.045Z,33.88
2019-04-20T08:45:34.892Z,33.86
2019-04-20T08:48:19.187Z,33.84
2019-04-20T08:50:57.787Z,33.90
2019-04-20T08:53:43.045Z,33.67
2019-04-20T08:56:14.000Z,33.74
2019-04-20T08:58:45.983Z,33.74
2019-04-20T09:01:29.073Z,33.20
2019-04-20T09:04:14.401Z,33.20
2019-04-20T09:07:01.003Z,33.48
2019-04-20T09:09:49.669Z,33.48
2019-04-20T09:12:26.845Z,33.61
2019-04-20T09:14:44.465Z,33.61
2019-04-20T09:17:34.832Z,33.50
2019-04-20T09:20:09.575Z,33.79
2019-04-20T09:22:58.187Z,33.79
2019-04-20T09:25:50.340Z,33.67
2019-04-20T09:28:21.567Z,33.67
2019-04-20T09:30:53.221Z,33.59
2019-04-20T09:33:55.535Z,33.64
2019-04-20T09:36:38.862Z,33.43
2019-04-20T09:39:24.643Z,33.12
2019-04-20T09:42:01.621Z,33.66
2019-04-20T09:44:39.866Z,33.66
2019-04-20T09:47:10.407Z,33.45
2019-04-20T09:49:54.956Z,33.51
2019-04-20T09:52:33.433Z,33.51
2019-04-20T09:55:09.208Z,33.43
2019-04-20T09:57:43.804Z,33.58
2019-04-20T10:00:18.323Z,33.13
2019-04-20T10:02:39.907Z,33.56
2019-04-20T10:05:17.698Z,33.56
2019-04-20T10:07:55.924Z,33.51
2019-04-20T10:10:33.964Z,33.25
2019-04-20T10:13:02.518Z,33.25
2019-04-20T10:15:37.439Z,33.54
2019-04-20T10:18:11.963Z,33.10
2019-04-20T10:20:45.350Z,33.03
2019-04-20T10:23:20.455Z,32.76
2019-04-20T10:25:54.251Z,32.93
2019-04-20T10:28:27.695Z,32.93
2019-04-20T10:31:04.504Z,32.89
2019-04-20T10:33:37.618Z,32.83
2019-04-20T10:36:17.425Z,32.90
2019-04-20T10:38:52.630Z,32.78
2019-04-20T10:41:36.083Z,32.78
2019-04-20T10:44:07.210Z,32.80
2019-04-20T10:46:43.117Z,32.91
2019-04-20T10:49:19.318Z,33.00
2019-04-20T10:51:53.800Z,33.00
2019-04-20T10:54:26.693Z,33.24
2019-04-20T10:56:59.453Z,33.31
2019-04-20T10:59:31.828Z,33.42
2019-04-20T11:02:03.960Z,33.19
2019-04-20T11:04:36.782Z,33.03
2019-04-20T11:07:08.719Z,33.12
2019-04-20T11:09:40.788Z,33.23
2019-04-20T11:12:14.457Z,33.21
2019-04-20T11:14:46.543Z,33.20
2019-04-20T11:17:18.619Z,33.27
2019-04-20T11:19:51.582Z,33.42
2019-04-20T11:22:24.230Z,33.37
2019-04-20T11:24:56.562Z,33.30
2019-04-20T11:27:29.942Z,33.08
2019-04-20T11:30:02.511Z,33.12
2019-04-20T11:32:36.040Z,33.12
2019-04-20T11:35:18.054Z,33.22
2019-04-20T11:37:42.798Z,33.21
2019-04-20T11:40:14.995Z,33.04
2019-04-20T11:42:47.946Z,32.88
2019-04-20T11:45:20.582Z,32.88
2019-04-20T11:47:53.702Z,32.87
2019-04-20T11:50:25.710Z,32.98
2019-04-20T11:53:01.510Z,32.98
2019-04-20T11:55:34.107Z,32.91
2019-04-20T11:58:05.873Z,32.91
2019-04-20T12:00:52.185Z,32.86
2019-04-20T12:03:28.128Z,32.94
2019-04-20T12:05:59.024Z,32.77
2019-04-20T12:08:29.301Z,32.88
2019-04-20T12:11:11.058Z,32.88
2019-04-20T12:13:36.590Z,32.83
2019-04-20T12:16:08.140Z,31.44
2019-04-20T12:18:39.960Z,31.44
2019-04-20T12:21:12.742Z,30.88
2019-04-20T12:23:44.576Z,30.37
2019-04-20T12:26:16.974Z,31.00
2019-04-20T12:28:49.696Z,32.25
2019-04-20T12:31:24.767Z,32.48
2019-04-20T12:33:54.941Z,32.44
2019-04-20T12:36:28.027Z,32.48
2019-04-20T12:39:01.213Z,32.06
2019-04-20T12:41:41.521Z,32.38
2019-04-20T12:44:08.258Z,32.52
2019-04-20T12:46:39.899Z,32.41
2019-04-20T12:49:11.995Z,32.56
2019-04-20T12:51:52.196Z,32.56
2019-04-20T12:54:18.511Z,32.48
2019-04-20T12:56:50.705Z,32.49
2019-04-20T12:59:23.469Z,32.38
2019-04-20T13:01:55.387Z,32.38
2019-04-20T13:04:27.350Z,32.40
2019-04-20T13:07:01.791Z,32.36
2019-04-20T13:09:40.865Z,32.36
2019-04-20T13:12:44.570Z,32.20
2019-04-20T13:15:36.782Z,32.25
2019-04-20T13:18:09.679Z,32.25
2019-04-20T13:20:41.949Z,32.20
2019-04-20T13:23:14.942Z,32.25
2019-04-20T13:25:47.046Z,32.25
2019-04-20T13:28:18.955Z,32.17
2019-04-20T13:30:50.953Z,32.13
2019-04-20T13:33:23.073Z,32.17
2019-04-20T13:35:56.729Z,32.05
2019-04-20T13:38:28.276Z,32.05
2019-04-20T13:41:00.148Z,32.01
2019-04-20T13:43:32.510Z,32.03
2019-04-20T13:46:04.896Z,32.03
2019-04-20T13:48:37.135Z,31.89
2019-04-20T13:51:09.850Z,31.90
2019-04-20T13:53:41.556Z,31.82
2019-04-20T13:56:14.081Z,31.83
2019-04-20T13:59:07.885Z,31.80
2019-04-20T14:02:08.879Z,31.81
2019-04-20T14:04:54.975Z,31.81
2019-04-20T14:07:27.180Z,31.78
2019-04-20T14:09:59.499Z,31.66
2019-04-20T14:12:37.081Z,31.66
2019-04-20T14:15:07.378Z,31.60
2019-04-20T14:17:39.388Z,31.48
2019-04-20T14:20:15.204Z,31.48
2019-04-20T14:22:45.404Z,31.40
2019-04-20T14:25:16.874Z,31.40
2019-04-20T14:27:48.820Z,31.20
2019-04-20T14:30:21.125Z,31.03
2019-04-20T14:32:54.703Z,30.99
2019-04-20T14:35:27.073Z,30.99
2019-04-20T14:37:59.678Z,30.94
2019-04-20T14:40:32.472Z,30.77
2019-04-20T14:43:04.271Z,30.78
2019-04-20T14:45:36.655Z,30.78
2019-04-20T14:48:08.279Z,30.89
2019-04-20T14:50:41.292Z,30.71
2019-04-20T14:53:13.736Z,30.71
2019-04-20T14:55:47.135Z,30.66
2019-04-20T14:58:41.050Z,30.60
2019-04-20T15:01:32.596Z,30.72
2019-04-20T15:04:09.997Z,30.61
2019-04-20T15:06:39.795Z,30.62
2019-04-20T15:09:12.841Z,30.64
2019-04-20T15:11:46.475Z,30.64
2019-04-20T15:14:18.793Z,30.64
2019-04-20T15:16:50.947Z,30.45
2019-04-20T15:19:51.643Z,30.51
2019-04-20T15:22:51.779Z,30.51
2019-04-20T15:25:23.767Z,30.44
2019-04-20T15:27:56.262Z,30.26
2019-04-20T15:30:28.380Z,30.26
2019-04-20T15:33:01.078Z,30.31
2019-04-20T15:35:34.599Z,30.17
2019-04-20T15:38:07.069Z,30.24
2019-04-20T15:40:39.428Z,30.24
2019-04-20T15:43:16.845Z,30.17
2019-04-20T15:45:45.396Z,30.23
2019-04-20T15:48:17.451Z,30.23
2019-04-20T15:50:49.904Z,30.10
2019-04-20T15:53:21.973Z,30.17
2019-04-20T15:55:53.795Z,30.15
2019-04-20T15:58:26.151Z,30.15
2019-04-20T16:00:58.582Z,29.90
2019-04-20T16:03:53.116Z,29.90
2019-04-20T16:06:27.250Z,29.86
2019-04-20T16:09:00.081Z,29.87
2019-04-20T16:11:32.804Z,29.90
2019-04-20T16:14:05.378Z,29.85
2019-04-20T16:16:37.463Z,29.78
2019-04-20T16:19:17.903Z,29.77
2019-04-20T16:21:45.714Z,29.73
2019-04-20T16:24:19.067Z,29.63
2019-04-20T16:26:57.691Z,29.63
2019-04-20T16:29:33.537Z,29.59
2019-04-20T16:32:06.961Z,29.54
2019-04-20T16:34:40.207Z,29.55
2019-04-20T16:37:12.638Z,29.58
2019-04-20T16:39:44.241Z,29.48
2019-04-20T16:42:16.190Z,29.42
2019-04-20T16:44:49.357Z,29.36
2019-04-20T16:47:22.013Z,29.32
2019-04-20T16:49:55.045Z,29.32
2019-04-20T16:52:28.786Z,29.38
2019-04-20T16:55:02.146Z,29.35
2019-04-20T16:57:34.037Z,29.32
2019-04-20T17:00:09.329Z,29.33
2019-04-20T17:02:42.393Z,29.39
2019-04-20T17:05:14.290Z,29.34
2019-04-20T17:07:47.086Z,29.31
2019-04-20T17:10:20.180Z,29.22
2019-04-20T17:12:53.700Z,29.22
2019-04-20T17:15:27.638Z,29.23
2019-04-20T17:17:59.593Z,29.02
2019-04-20T17:20:32.839Z,29.34
2019-04-20T17:23:07.042Z,29.34
2019-04-20T17:25:39.894Z,29.39
2019-04-20T17:28:29.382Z,29.31
2019-04-20T17:31:27.064Z,29.33
2019-04-20T17:34:17.533Z,29.33
2019-04-20T17:36:38.113Z,29.41
2019-04-20T17:39:13.449Z,29.41
2019-04-20T17:42:00.450Z,29.29
2019-04-20T17:44:31.445Z,29.15
2019-04-20T17:47:01.559Z,29.13
2019-04-20T17:49:34.178Z,29.02
2019-04-20T17:52:26.467Z,29.21
2019-04-20T17:54:47.523Z,29.19
2019-04-20T17:57:19.866Z,29.19
2019-04-20T17:59:59.722Z,29.17
2019-04-20T18:03:08.389Z,29.12
2019-04-20T18:05:58.448Z,29.12
2019-04-20T18:08:26.715Z,28.95
2019-04-20T18:10:53.083Z,29.02
2019-04-20T18:13:21.672Z,29.00
2019-04-20T18:16:12.454Z,29.00
2019-04-20T18:18:56.231Z,28.97
2019-04-20T18:21:28.739Z,28.97
2019-04-20T18:24:07.142Z,28.97
2019-04-20T18:26:52.130Z,28.94
2019-04-20T18:29:32.261Z,28.80
2019-04-20T18:32:02.000Z,28.75
2019-04-20T18:34:56.342Z,28.77
2019-04-20T18:37:30.997Z,28.82
2019-04-20T18:40:09.606Z,28.92
2019-04-20T18:42:42.259Z,28.92
2019-04-20T18:45:30.865Z,28.80
2019-04-20T18:48:05.887Z,28.88
2019-04-20T18:50:27.712Z,28.65
2019-04-20T18:52:54.114Z,28.76
2019-04-20T18:55:34.229Z,28.82
2019-04-20T18:57:59.714Z,28.77
2019-04-20T19:00:36.560Z,28.72
2019-04-20T19:03:13.295Z,28.76
2019-04-20T19:05:42.029Z,28.76
2019-04-20T19:08:17.400Z,28.78
2019-04-20T19:11:00.363Z,28.80
2019-04-20T19:13:36.577Z,28.68
2019-04-20T19:16:28.466Z,28.68
2019-04-20T19:19:23.521Z,28.64
2019-04-20T19:21:44.133Z,28.62
2019-04-20T19:24:18.484Z,28.74
2019-04-20T19:26:54.654Z,28.74
2019-04-20T19:29:30.077Z,28.69
2019-04-20T19:32:11.610Z,28.61
2019-04-20T19:34:45.395Z,28.70
2019-04-20T19:37:14.332Z,28.55
2019-04-20T19:39:53.218Z,28.55
2019-04-20T19:42:31.236Z,28.65
2019-04-20T19:45:02.012Z,28.65
2019-04-20T19:47:44.979Z,28.55
2019-04-20T19:50:25.134Z,28.57
2019-04-20T19:52:57.099Z,28.52
2019-04-20T19:55:23.698Z,28.47
2019-04-20T19:57:57.965Z,28.47
2019-04-20T20:00:12.915Z,28.54
2019-04-20T20:02:46.078Z,28.42
2019-04-20T20:05:23.016Z,28.42
2019-04-20T20:07:57.399Z,28.42
2019-04-20T20:10:33.866Z,28.72
2019-04-20T20:13:04.112Z,28.70
2019-04-20T20:15:38.046Z,28.70
2019-04-20T20:18:27.827Z,28.67
2019-04-20T20:20:59.581Z,28.64
2019-04-20T20:23:18.243Z,28.54
2019-04-20T20:25:51.481Z,28.54
2019-04-20T20:28:33.633Z,28.37
2019-04-20T20:31:08.046Z,28.33
2019-04-20T20:33:45.481Z,28.33
2019-04-20T20:36:13.973Z,28.40
2019-04-20T20:38:43.662Z,28.21
2019-04-20T20:41:20.611Z,28.21
2019-04-20T20:43:56.549Z,28.20
2019-04-20T20:46:31.976Z,28.20
2019-04-20T20:49:28.658Z,28.27
2019-04-20T20:51:52.790Z,28.27
2019-04-20T20:54:10.078Z,28.21
2019-04-20T20:56:46.440Z,28.21
2019-04-20T20:59:14.445Z,28.11
2019-04-20T21:01:50.286Z,28.11
2019-04-20T21:04:15.353Z,28.02
2019-04-20T21:06:48.616Z,28.12
2019-04-20T21:09:24.164Z,27.99
2019-04-20T21:12:01.807Z,28.06
2019-04-20T21:14:31.757Z,28.09
2019-04-20T21:17:10.269Z,28.09
2019-04-20T21:19:56.262Z,27.88
2019-04-20T21:22:18.557Z,27.88
2019-04-20T21:24:48.451Z,27.89
2019-04-20T21:27:21.943Z,27.90
2019-04-20T21:29:56.385Z,27.86
2019-04-20T21:32:28.215Z,27.86
2019-04-20T21:35:03.516Z,27.83
2019-04-20T21:37:34.720Z,27.83
2019-04-20T21:40:21.333Z,27.86
2019-04-20T21:42:49.569Z,27.65
2019-04-20T21:45:22.820Z,27.71
2019-04-20T21:47:48.507Z,27.68
2019-04-20T21:50:35.830Z,27.54
2019-04-20T21:53:00.741Z,27.76
2019-04-20T21:55:27.944Z,27.67
2019-04-20T21:58:00.825Z,27.69
2019-04-20T22:01:03.891Z,27.49
2019-04-20T22:03:26.765Z,27.49
2019-04-20T22:06:08.790Z,27.33
2019-04-20T22:08:49.765Z,27.64
2019-04-20T22:11:14.081Z,27.56
2019-04-20T22:13:47.682Z,27.56
2019-04-20T22:16:20.795Z,27.56
2019-04-20T22:19:10.322Z,27.58
2019-04-20T22:21:45.076Z,27.58
2019-04-20T22:24:15.238Z,27.32
2019-04-20T22:26:47.713Z,27.32
2019-04-20T22:29:08.017Z,27.23
2019-04-20T22:31:40.291Z,27.38
2019-04-20T22:34:18.677Z,27.38
2019-04-20T22:36:48.610Z,27.23
2019-04-20T22:39:29.291Z,27.39
2019-04-20T22:42:00.186Z,27.27
2019-04-20T22:44:32.858Z,27.27
2019-04-20T22:47:11.963Z,27.27
2019-04-20T22:49:52.451Z,27.27
2019-04-20T22:52:29.375Z,27.37
2019-04-20T22:55:01.393Z,27.37
2019-04-20T22:57:32.004Z,27.29
2019-04-20T22:59:59.413Z,27.29
2019-04-20T23:02:26.589Z,27.14
2019-04-20T23:04:58.732Z,27.18
2019-04-20T23:07:30.891Z,27.20
2019-04-20T23:10:03.799Z,27.17
2019-04-20T23:12:39.959Z,27.25
2019-04-20T23:15:12.158Z,27.19
2019-04-20T23:17:46.856Z,27.26
2019-04-20T23:20:25.261Z,26.96
2019-04-20T23:22:53.037Z,27.16
2019-04-20T23:25:25.118Z,27.07
2019-04-20T23:28:00.158Z,27.07
2019-04-20T23:30:34.041Z,27.04
2019-04-20T23:33:04.388Z,27.09
2019-04-20T23:35:37.499Z,27.03
2019-04-20T23:38:15.817Z,27.13
2019-04-20T23:40:45.763Z,27.15
2019-04-20T23:43:28.985Z,27.05
2019-04-20T23:46:33.285Z,27.16
2019-04-20T23:49:31.794Z,27.16
2019-04-20T23:52:27.011Z,26.96
2019-04-20T23:54:37.038Z,26.92
2019-04-20T23:57:08.087Z,26.94
2019-04-20T23:59:43.355Z,26.94
